Time;durP1;ratioP1;P1;durP2;ratioP2;P2;SDS_P1;SDS_P2;PMS_P1;PMS_P2;Temp;Humidity;BMP_temperature;BMP_pressure;BME280_temperature;BME280_humidity;BME280_pressure;Samples;Min_cycle;Max_cycle;Signal;HPM_P1;HPM_P2
2022/04/22 00:00:32;;;;;;;;;;;;;;;;;;5024060;28;20352;-60
2022/04/22 00:03:09;;;;;;;;;;;;;;;;;;;;;
2022/04/22 00:05:38;;;;;;;;;;;;;;;;;;5007912;28;20383;-60
2022/04/22 00:08:06;;;;;;;;;;;;;;;;;;5026611;28;19905;-60
2022/04/22 00:10:33;;;;;;;;;;;;;;;;;;5028299;28;19906;-60
2022/04/22 00:12:59;;;;;;;;;;;;;;;;;;5028088;28;19916;-60
2022/04/22 00:15:47;;;;;;;;;;;;;;;;;;;;;
2022/04/22 00:18:19;;;;;;;;;;;;;;;;;;5025753;28;19969;-59
2022/04/22 00:20:55;;;;;;;;;;;;;;;;;;5027197;28;19982;-60
2022/04/22 00:26:09;;;;;;;;;;;;;;;;;;5027003;28;19916;-59
2022/04/22 00:28:51;;;;;;;;;;;;;;;;;;;;;
2022/04/22 00:31:20;;;;;;;;;;;;;;;;;;5027379;28;19966;-60
2022/04/22 00:34:04;;;;;;;;;;;;;;;;;;5027432;28;19932;-60
2022/04/22 00:39:38;;;;;;;;;;;;;;;;;;5003188;28;19912;-60
2022/04/22 00:42:18;;;;;;;;;;;;;;;;;;5027067;28;19909;-60
2022/04/22 00:44:53;;;;;;;;;;;;;;;;;;5025979;28;19913;-60
2022/04/22 00:47:19;;;;;;;;;;;;;;;;;;5026073;28;19973;-59
2022/04/22 00:49:58;;;;;;;;;;;;;;;;;;5027001;28;19917;-59
2022/04/22 00:52:24;;;;;;;;;;;;;;;;;;5026320;28;19913;-60
2022/04/22 00:57:45;;;;;;;;;;;;;;;;;;5024109;28;19932;-60
2022/04/22 01:03:07;;;;;;;;;;;;;;;;;;5017638;28;19928;-60
2022/04/22 01:11:17;;;;;;;;;;;;;;;;;;5026772;28;19912;-59
2022/04/22 01:16:39;;;;;;;;;;;;;;;;;;4985323;28;19920;-60
2022/04/22 01:19:05;;;;;;;;;;;;;;;;;;4984274;28;20243;-60
2022/04/22 01:21:50;;;;;;;;;;;;;;;;;;4985436;28;19981;-60
2022/04/22 01:24:29;;;;;;;;;;;;;;;;;;4985638;28;19973;-59
2022/04/22 01:33:00;;;;;;;;;;;;;;;;;;4908819;29;20016;-59
2022/04/22 01:35:26;;;;;;;;;;;;;;;;;;4926606;29;19907;-59
2022/04/22 01:37:58;;;;;;;;;;;;;;;;;;4926310;29;19959;-60
2022/04/22 01:40:42;;;;;;;;;;;;;;;;;;5009063;28;20240;-60
2022/04/22 01:45:54;;;;;;;;;;;;;;;;;;5025901;28;19969;-60
2022/04/22 01:48:30;;;;;;;;;;;;;;;;;;5023288;28;19906;-59
2022/04/22 01:51:39;;;;;;;;;;;;;;;;;;;;;
2022/04/22 01:56:36;;;;;;;;;;;;;;;;;;5004140;28;20044;-59
2022/04/22 01:59:04;;;;;;;;;;;;;;;;;;5002805;28;19906;-60
2022/04/22 02:01:33;;;;;;;;;;;;;;;;;;5004030;28;19906;-59
2022/04/22 02:04:14;;;;;;;;;;;;;;;;;;;;;
2022/04/22 02:06:43;;;;;;;;;;;;;;;;;;5004077;28;19984;-60
2022/04/22 02:12:05;;;;;;;;;;;;;;;;;;5021612;28;20065;-59
2022/04/22 02:20:38;;;;;;;;;;;;;;;;;;4984205;28;19913;-59
2022/04/22 02:23:22;;;;;;;;;;;;;;;;;;4984010;28;19927;-59
2022/04/22 02:26:10;;;;;;;;;;;;;;;;;;4983439;28;19913;-59
2022/04/22 02:28:42;;;;;;;;;;;;;;;;;;4982606;28;19917;-59
2022/04/22 02:31:15;;;;;;;;;;;;;;;;;;4983312;28;19906;-59
2022/04/22 02:34:00;;;;;;;;;;;;;;;;;;4983572;28;19978;-59
2022/04/22 02:36:32;;;;;;;;;;;;;;;;;;4984284;28;19929;-59
2022/04/22 02:39:04;;;;;;;;;;;;;;;;;;4999597;28;20382;-59
2022/04/22 02:47:03;;;;;;;;;;;;;;;;;;5025170;28;19944;-59
2022/04/22 02:49:43;;;;;;;;;;;;;;;;;;5023997;28;19913;-59
2022/04/22 02:52:28;;;;;;;;;;;;;;;;;;;;;
2022/04/22 02:54:57;;;;;;;;;;;;;;;;;;5024046;28;19944;-60
2022/04/22 02:57:26;;;;;;;;;;;;;;;;;;5023186;28;19947;-59
2022/04/22 03:02:54;;;;;;;;;;;;;;;;;;5001538;28;19901;-60
2022/04/22 03:05:41;;;;;;;;;;;;;;;;;;5024527;28;19986;-59
2022/04/22 03:14:13;;;;;;;;;;;;;;;;;;;;;
2022/04/22 03:16:42;;;;;;;;;;;;;;;;;;4983679;28;19948;-59
2022/04/22 03:19:14;;;;;;;;;;;;;;;;;;4966251;28;20396;-60
2022/04/22 03:33:12;;;;;;;;;;;;;;;;;;4952823;29;20268;-59
2022/04/22 03:35:56;;;;;;;;;;;;;;;;;;4952359;29;19906;-59
2022/04/22 03:38:22;;;;;;;;;;;;;;;;;;4951800;29;19907;-59
2022/04/22 03:40:51;;;;;;;;;;;;;;;;;;4952389;29;20265;-59
2022/04/22 03:43:20;;;;;;;;;;;;;;;;;;4965684;28;19905;-59
2022/04/22 03:45:51;;;;;;;;;;;;;;;;;;5013499;28;20342;-59
2022/04/22 03:48:21;;;;;;;;;;;;;;;;;;5009933;28;20399;-60
2022/04/22 03:50:53;;;;;;;;;;;;;;;;;;5017832;28;20004;-59
2022/04/22 03:54:22;;;;;;;;;;;;;;;;;;5012566;28;19918;-59
2022/04/22 03:59:05;;;;;;;;;;;;;;;;;;5015225;28;19915;-59
2022/04/22 04:01:38;;;;;;;;;;;;;;;;;;5013812;28;20008;-59
2022/04/22 04:07:23;;;;;;;;;;;;;;;;;;4935285;29;20321;-59
2022/04/22 04:18:02;;;;;;;;;;;;;;;;;;4933415;29;20371;-59
2022/04/22 04:23:17;;;;;;;;;;;;;;;;;;4996029;28;19940;-59
2022/04/22 04:26:00;;;;;;;;;;;;;;;;;;4996293;28;19905;-59
2022/04/22 04:28:38;;;;;;;;;;;;;;;;;;4994585;28;20366;-59
2022/04/22 04:34:09;;;;;;;;;;;;;;;;;;4955253;29;19926;-59
2022/04/22 04:36:57;;;;;;;;;;;;;;;;;;;;;
2022/04/22 04:39:27;;;;;;;;;;;;;;;;;;4951614;29;19966;-59
2022/04/22 04:41:56;;;;;;;;;;;;;;;;;;4954985;29;19950;-59
2022/04/22 04:44:25;;;;;;;;;;;;;;;;;;4944607;29;20345;-59
2022/04/22 04:46:58;;;;;;;;;;;;;;;;;;4931352;29;20373;-59
2022/04/22 04:52:16;;;;;;;;;;;;;;;;;;4994613;28;19960;-59
2022/04/22 04:54:51;;;;;;;;;;;;;;;;;;4995733;28;20352;-59
2022/04/22 05:03:16;;;;;;;;;;;;;;;;;;5002337;28;19937;-59
2022/04/22 05:06:10;;;;;;;;;;;;;;;;;;;;;
2022/04/22 05:14:13;;;;;;;;;;;;;;;;;;4986185;28;19913;-59
2022/04/22 05:16:50;;;;;;;;;;;;;;;;;;4935168;29;19907;-59
2022/04/22 05:22:03;;;;;;;;;;;;;;;;;;4954547;29;19978;-59
2022/04/22 05:24:37;;;;;;;;;;;;;;;;;;4953462;28;19914;-59
2022/04/22 05:27:06;;;;;;;;;;;;;;;;;;4952603;29;19914;-59
2022/04/22 05:35:15;;;;;;;;;;;;;;;;;;4954429;29;19913;-59
2022/04/22 05:37:54;;;;;;;;;;;;;;;;;;;;;
2022/04/22 05:40:25;;;;;;;;;;;;;;;;;;4995525;28;20464;-59
2022/04/22 05:43:00;;;;;;;;;;;;;;;;;;5012068;28;19913;-60
2022/04/22 05:45:41;;;;;;;;;;;;;;;;;;;;;
2022/04/22 05:48:08;;;;;;;;;;;;;;;;;;4995682;28;19906;-60
2022/04/22 05:53:49;;;;;;;;;;;;;;;;;;4953093;29;20400;-59
2022/04/22 05:56:19;;;;;;;;;;;;;;;;;;4954011;29;19914;-60
2022/04/22 05:59:06;;;;;;;;;;;;;;;;;;4953198;29;19941;-57
2022/04/22 06:01:31;;;;;;;;;;;;;;;;;;4953156;29;19913;-58
2022/04/22 06:12:34;;;;;;;;;;;;;;;;;;4957723;29;20296;-58
2022/04/22 06:18:07;;;;;;;;;;;;;;;;;;4983311;28;20449;-58
2022/04/22 06:20:39;;;;;;;;;;;;;;;;;;5011998;28;20278;-59
2022/04/22 06:23:18;;;;;;;;;;;;;;;;;;5005439;28;20386;-59
2022/04/22 06:28:44;;;;;;;;;;;;;;;;;;5010177;28;19905;-59
2022/04/22 06:31:15;;;;;;;;;;;;;;;;;;5012848;28;19913;-59
2022/04/22 06:33:44;;;;;;;;;;;;;;;;;;5013190;28;19918;-59
2022/04/22 06:36:28;;;;;;;;;;;;;;;;;;5005627;28;19917;-59
2022/04/22 06:47:18;;;;;;;;;;;;;;;;;;4993302;28;19960;-59
2022/04/22 06:49:45;;;;;;;;;;;;;;;;;;5002034;28;20004;-59
2022/04/22 06:56:08;;;;;;;;;;;;;;;;;;;;;
2022/04/22 06:58:02;;;;;;;;;;;;;;;;;;4994024;28;19909;-59
2022/04/22 07:00:47;;;;;;;;;;;;;;;;;;5012789;28;19956;-59
2022/04/22 07:03:32;;;;;;;;;;;;;;;;;;;;;
2022/04/22 07:05:59;;;;;;;;;;;;;;;;;;5013550;28;20327;-60
2022/04/22 07:08:45;;;;;;;;;;;;;;;;;;5012905;28;19916;-59
2022/04/22 07:14:05;;;;;;;;;;;;;;;;;;5009421;28;19936;-59
2022/04/22 07:19:43;;;;;;;;;;;;;;;;;;;;;
2022/04/22 07:22:16;;;;;;;;;;;;;;;;;;4993718;28;19916;-59
2022/04/22 07:27:41;;;;;;;;;;;;;;;;;;4994848;28;20240;-59
2022/04/22 07:30:10;;;;;;;;;;;;;;;;;;5003132;28;19913;-60
2022/04/22 07:32:51;;;;;;;;;;;;;;;;;;5011490;28;19936;-59
2022/04/22 07:35:25;;;;;;;;;;;;;;;;;;5009848;28;19922;-59
2022/04/22 07:38:01;;;;;;;;;;;;;;;;;;;;;
2022/04/22 07:40:37;;;;;;;;;;;;;;;;;;5013030;28;19924;-59
2022/04/22 07:48:52;;;;;;;;;;;;;;;;;;5010243;28;19932;-59
2022/04/22 07:51:28;;;;;;;;;;;;;;;;;;;;;
2022/04/22 07:56:56;;;;;;;;;;;;;;;;;;;;;
2022/04/22 07:59:43;;;;;;;;;;;;;;;;;;5005732;28;19917;-59
2022/04/22 08:02:19;;;;;;;;;;;;;;;;;;4999716;28;19953;-59
2022/04/22 08:04:48;;;;;;;;;;;;;;;;;;5030000;28;19913;-59
2022/04/22 08:07:18;;;;;;;;;;;;;;;;;;5011924;28;19917;-59
2022/04/22 08:09:47;;;;;;;;;;;;;;;;;;5006126;28;19914;-59
2022/04/22 08:12:35;;;;;;;;;;;;;;;;;;5003859;28;20210;-60
2022/04/22 08:15:06;;;;;;;;;;;;;;;;;;5013780;28;20394;-59
2022/04/22 08:17:38;;;;;;;;;;;;;;;;;;5016222;28;20410;-59
2022/04/22 08:20:11;;;;;;;;;;;;;;;;;;5016281;28;19976;-59
2022/04/22 08:22:50;;;;;;;;;;;;;;;;;;;;;
2022/04/22 08:25:27;;;;;;;;;;;;;;;;;;5015105;28;19959;-59
2022/04/22 08:28:03;;;;;;;;;;;;;;;;;;;;;
2022/04/22 08:30:50;;;;;;;;;;;;;;;;;;5016182;28;20004;-59
2022/04/22 08:33:18;;;;;;;;;;;;;;;;;;5020717;28;19997;-59
2022/04/22 08:38:30;;;;;;;;;;;;;;;;;;5013820;28;20019;-59
2022/04/22 08:41:12;;;;;;;;;;;;;;;;;;5013963;28;20517;-59
2022/04/22 08:52:00;;;;;;;;;;;;;;;;;;5012327;28;19932;-59
2022/04/22 08:54:42;;;;;;;;;;;;;;;;;;5005467;28;19969;-59
2022/04/22 09:00:21;;;;;;;;;;;;;;;;;;5002868;28;19951;-60
2022/04/22 09:02:48;;;;;;;;;;;;;;;;;;5015523;28;19912;-59
2022/04/22 09:05:14;;;;;;;;;;;;;;;;;;5012600;28;20372;-59
2022/04/22 09:07:54;;;;;;;;;;;;;;;;;;5007542;28;20331;-59
2022/04/22 09:13:19;;;;;;;;;;;;;;;;;;4986683;28;19914;-59
2022/04/22 09:18:38;;;;;;;;;;;;;;;;;;4980069;28;19906;-60
2022/04/22 09:21:07;;;;;;;;;;;;;;;;;;5005410;28;19906;-59
2022/04/22 09:23:54;;;;;;;;;;;;;;;;;;5014727;28;19906;-59
2022/04/22 09:26:30;;;;;;;;;;;;;;;;;;5014762;28;20402;-59
2022/04/22 09:29:12;;;;;;;;;;;;;;;;;;;;;
2022/04/22 09:31:45;;;;;;;;;;;;;;;;;;5011813;28;19905;-59
2022/04/22 09:34:25;;;;;;;;;;;;;;;;;;5015044;28;19988;-59
2022/04/22 09:48:18;;;;;;;;;;;;;;;;;;4956081;28;19914;-59
2022/04/22 09:50:53;;;;;;;;;;;;;;;;;;4938397;29;19906;-59
2022/04/22 09:59:08;;;;;;;;;;;;;;;;;;4993805;28;20041;-59
2022/04/22 10:01:37;;;;;;;;;;;;;;;;;;5000916;28;20282;-60
2022/04/22 10:04:06;;;;;;;;;;;;;;;;;;5011416;28;19916;-59
2022/04/22 10:06:40;;;;;;;;;;;;;;;;;;5007787;28;19912;-59
2022/04/22 10:09:16;;;;;;;;;;;;;;;;;;;;;
2022/04/22 10:11:47;;;;;;;;;;;;;;;;;;5014315;28;19909;-60
2022/04/22 10:14:21;;;;;;;;;;;;;;;;;;5013312;28;20351;-59
2022/04/22 10:17:05;;;;;;;;;;;;;;;;;;5010304;28;20052;-59
2022/04/22 10:22:33;;;;;;;;;;;;;;;;;;;;;
2022/04/22 10:25:42;;;;;;;;;;;;;;;;;;;;;
2022/04/22 10:28:06;;;;;;;;;;;;;;;;;;4990859;28;19952;-60
2022/04/22 10:30:52;;;;;;;;;;;;;;;;;;5014335;28;19909;-59
2022/04/22 10:36:47;;;;;;;;;;;;;;;;;;5013979;28;20290;-60
2022/04/22 10:39:08;;;;;;;;;;;;;;;;;;;;;
2022/04/22 10:41:46;;;;;;;;;;;;;;;;;;5014002;28;20332;-59
2022/04/22 10:49:59;;;;;;;;;;;;;;;;;;5005335;28;19952;-59
2022/04/22 10:52:40;;;;;;;;;;;;;;;;;;5012321;28;19917;-59
2022/04/22 11:06:21;;;;;;;;;;;;;;;;;;5013539;28;19910;-60
2022/04/22 11:08:49;;;;;;;;;;;;;;;;;;5015094;28;20319;-59
2022/04/22 11:11:31;;;;;;;;;;;;;;;;;;5015744;28;20363;-60
2022/04/22 11:14:09;;;;;;;;;;;;;;;;;;5014706;28;20426;-59
2022/04/22 11:16:48;;;;;;;;;;;;;;;;;;5013048;28;19944;-60
2022/04/22 11:19:36;;;;;;;;;;;;;;;;;;5004932;28;20329;-60
2022/04/22 11:22:05;;;;;;;;;;;;;;;;;;4995158;28;20472;-59
2022/04/22 11:24:46;;;;;;;;;;;;;;;;;;4993469;28;19906;-59
2022/04/22 11:30:01;;;;;;;;;;;;;;;;;;5015237;28;19933;-59
2022/04/22 11:32:29;;;;;;;;;;;;;;;;;;5006620;28;19925;-60
2022/04/22 11:35:16;;;;;;;;;;;;;;;;;;5012115;28;19905;-60
2022/04/22 11:37:51;;;;;;;;;;;;;;;;;;5015016;28;20027;-58
2022/04/22 11:40:26;;;;;;;;;;;;;;;;;;5001234;28;19920;-58
2022/04/22 11:43:20;;;;;;;;;;;;;;;;;;;;;
2022/04/22 11:45:57;;;;;;;;;;;;;;;;;;5005877;28;19905;-58
2022/04/22 11:48:23;;;;;;;;;;;;;;;;;;5014660;28;20370;-58
2022/04/22 11:53:43;;;;;;;;;;;;;;;;;;;;;
2022/04/22 11:56:38;;;;;;;;;;;;;;;;;;5001686;28;19906;-59
2022/04/22 11:59:18;;;;;;;;;;;;;;;;;;5010096;28;19910;-58
2022/04/22 12:12:50;;;;;;;;;;;;;;;;;;5015590;28;19940;-58
2022/04/22 12:18:15;;;;;;;;;;;;;;;;;;5014465;28;19992;-58
2022/04/22 12:20:50;;;;;;;;;;;;;;;;;;5016150;28;20323;-58
2022/04/22 12:23:38;;;;;;;;;;;;;;;;;;5013649;28;20012;-58
2022/04/22 12:26:15;;;;;;;;;;;;;;;;;;5014741;28;19905;-58
2022/04/22 12:28:53;;;;;;;;;;;;;;;;;;5014530;28;20300;-58
2022/04/22 12:31:31;;;;;;;;;;;;;;;;;;5016159;28;19909;-58
2022/04/22 12:34:00;;;;;;;;;;;;;;;;;;5015884;28;20347;-58
2022/04/22 12:36:26;;;;;;;;;;;;;;;;;;5016251;28;20475;-58
2022/04/22 12:38:52;;;;;;;;;;;;;;;;;;5015143;28;19910;-58
2022/04/22 12:44:19;;;;;;;;;;;;;;;;;;4978390;28;19913;-58
2022/04/22 12:52:24;;;;;;;;;;;;;;;;;;5007449;28;19920;-59
2022/04/22 12:57:36;;;;;;;;;;;;;;;;;;5010280;28;19960;-59
2022/04/22 13:03:11;;;;;;;;;;;;;;;;;;5012071;28;20379;-58
2022/04/22 13:05:38;;;;;;;;;;;;;;;;;;5001974;28;19917;-59
2022/04/22 13:08:07;;;;;;;;;;;;;;;;;;5012859;28;19905;-59
2022/04/22 13:13:33;;;;;;;;;;;;;;;;;;5012306;28;19940;-59
2022/04/22 13:22:05;;;;;;;;;;;;;;;;;;;;;
2022/04/22 13:24:44;;;;;;;;;;;;;;;;;;;;;
2022/04/22 13:27:29;;;;;;;;;;;;;;;;;;4925735;29;20361;-59
2022/04/22 13:30:01;;;;;;;;;;;;;;;;;;4942314;29;19922;-59
2022/04/22 13:32:27;;;;;;;;;;;;;;;;;;4956415;28;20347;-59
2022/04/22 13:37:51;;;;;;;;;;;;;;;;;;4970335;28;19910;-59
2022/04/22 13:40:26;;;;;;;;;;;;;;;;;;5001521;28;19914;-59
2022/04/22 13:42:52;;;;;;;;;;;;;;;;;;5005030;28;19917;-59
2022/04/22 13:53:42;;;;;;;;;;;;;;;;;;5013541;28;20153;-59
2022/04/22 13:56:08;;;;;;;;;;;;;;;;;;5005826;28;19914;-59
2022/04/22 13:58:37;;;;;;;;;;;;;;;;;;5013338;28;19905;-59
2022/04/22 14:09:38;;;;;;;;;;;;;;;;;;5002091;28;19909;-59
2022/04/22 14:12:16;;;;;;;;;;;;;;;;;;5013949;28;19945;-59
2022/04/22 14:15:00;;;;;;;;;;;;;;;;;;5012597;28;20366;-59
2022/04/22 14:17:29;;;;;;;;;;;;;;;;;;5006847;28;19948;-59
2022/04/22 14:20:03;;;;;;;;;;;;;;;;;;5013246;28;19912;-59
2022/04/22 14:22:35;;;;;;;;;;;;;;;;;;5015711;28;20380;-59
2022/04/22 14:25:16;;;;;;;;;;;;;;;;;;;;;
2022/04/22 14:28:00;;;;;;;;;;;;;;;;;;5007331;28;19928;-59
2022/04/22 14:30:49;;;;;;;;;;;;;;;;;;;;;
2022/04/22 14:39:10;;;;;;;;;;;;;;;;;;5004268;28;19916;-59
2022/04/22 14:41:48;;;;;;;;;;;;;;;;;;5012131;28;20381;-59
2022/04/22 14:44:21;;;;;;;;;;;;;;;;;;5013514;28;19924;-59
2022/04/22 14:47:03;;;;;;;;;;;;;;;;;;5007364;28;20350;-59
2022/04/22 14:52:26;;;;;;;;;;;;;;;;;;5012943;28;19924;-59
2022/04/22 14:55:11;;;;;;;;;;;;;;;;;;;;;
2022/04/22 15:03:15;;;;;;;;;;;;;;;;;;5013716;28;19960;-59
2022/04/22 15:05:44;;;;;;;;;;;;;;;;;;5012806;28;19916;-59
2022/04/22 15:08:13;;;;;;;;;;;;;;;;;;5004584;28;19906;-59
2022/04/22 15:10:43;;;;;;;;;;;;;;;;;;5013964;28;19905;-59
2022/04/22 15:13:22;;;;;;;;;;;;;;;;;;5011871;28;19913;-59
2022/04/22 15:24:16;;;;;;;;;;;;;;;;;;5014095;28;19912;-59
2022/04/22 15:29:26;;;;;;;;;;;;;;;;;;5012935;28;19917;-59
2022/04/22 15:31:56;;;;;;;;;;;;;;;;;;5011852;28;19964;-59
2022/04/22 15:34:24;;;;;;;;;;;;;;;;;;5008485;28;20332;-59
2022/04/22 15:36:57;;;;;;;;;;;;;;;;;;5009346;28;19916;-59
2022/04/22 15:39:29;;;;;;;;;;;;;;;;;;5013077;28;19913;-59
2022/04/22 15:41:58;;;;;;;;;;;;;;;;;;5017005;28;19909;-59
2022/04/22 15:44:25;;;;;;;;;;;;;;;;;;5009254;28;20364;-59
2022/04/22 15:47:04;;;;;;;;;;;;;;;;;;;;;
2022/04/22 15:49:43;;;;;;;;;;;;;;;;;;;;;
2022/04/22 15:55:16;;;;;;;;;;;;;;;;;;5015042;28;20364;-59
2022/04/22 16:03:19;;;;;;;;;;;;;;;;;;5003931;28;20360;-59
2022/04/22 16:05:56;;;;;;;;;;;;;;;;;;4994720;28;19960;-59
2022/04/22 16:08:41;;;;;;;;;;;;;;;;;;;;;
2022/04/22 16:16:44;;;;;;;;;;;;;;;;;;5008542;28;19963;-59
2022/04/22 16:19:29;;;;;;;;;;;;;;;;;;5015816;28;19973;-59
2022/04/22 16:24:44;;;;;;;;;;;;;;;;;;5016503;28;19913;-59
2022/04/22 16:29:58;;;;;;;;;;;;;;;;;;5008040;28;20270;-59
2022/04/22 16:32:34;;;;;;;;;;;;;;;;;;5015789;28;20012;-59
2022/04/22 16:40:35;;;;;;;;;;;;;;;;;;5009573;28;19909;-59
2022/04/22 16:43:11;;;;;;;;;;;;;;;;;;;;;
2022/04/22 16:48:46;;;;;;;;;;;;;;;;;;4953842;29;19985;-59
2022/04/22 16:51:18;;;;;;;;;;;;;;;;;;4955300;29;19910;-59
2022/04/22 16:53:47;;;;;;;;;;;;;;;;;;4986594;28;19914;-59
2022/04/22 16:56:22;;;;;;;;;;;;;;;;;;5007557;28;19917;-59
2022/04/22 17:01:47;;;;;;;;;;;;;;;;;;4987249;28;19923;-59
2022/04/22 17:07:09;;;;;;;;;;;;;;;;;;4982901;28;19905;-59
2022/04/22 17:09:45;;;;;;;;;;;;;;;;;;5008228;28;19956;-59
2022/04/22 17:12:39;;;;;;;;;;;;;;;;;;;;;
2022/04/22 17:23:14;;;;;;;;;;;;;;;;;;5007449;28;20338;-59
2022/04/22 17:25:58;;;;;;;;;;;;;;;;;;5015304;28;19945;-59
2022/04/22 17:28:31;;;;;;;;;;;;;;;;;;5014579;28;19910;-59
2022/04/22 17:31:00;;;;;;;;;;;;;;;;;;5015021;28;20371;-59
2022/04/22 17:33:40;;;;;;;;;;;;;;;;;;5010876;28;20286;-59
2022/04/22 17:36:15;;;;;;;;;;;;;;;;;;5008587;28;19963;-59
2022/04/22 17:38:45;;;;;;;;;;;;;;;;;;5013100;28;19932;-59
2022/04/22 17:44:06;;;;;;;;;;;;;;;;;;4984703;28;19981;-59
2022/04/22 17:46:32;;;;;;;;;;;;;;;;;;4996003;28;19932;-59
2022/04/22 17:48:58;;;;;;;;;;;;;;;;;;5005700;28;19910;-59
2022/04/22 17:51:38;;;;;;;;;;;;;;;;;;;;;
2022/04/22 17:54:04;;;;;;;;;;;;;;;;;;4994950;28;20560;-59
2022/04/22 17:56:32;;;;;;;;;;;;;;;;;;4995169;28;19984;-59
2022/04/22 17:59:16;;;;;;;;;;;;;;;;;;4994025;28;20403;-59
2022/04/22 18:04:28;;;;;;;;;;;;;;;;;;4994474;28;20422;-59
2022/04/22 18:06:54;;;;;;;;;;;;;;;;;;4991180;28;19910;-59
2022/04/22 18:09:20;;;;;;;;;;;;;;;;;;4983032;28;20356;-58
2022/04/22 18:11:46;;;;;;;;;;;;;;;;;;4991004;28;20068;-58
2022/04/22 18:16:59;;;;;;;;;;;;;;;;;;4989698;28;19944;-59
2022/04/22 18:19:37;;;;;;;;;;;;;;;;;;4983208;28;19940;-58
2022/04/22 18:22:04;;;;;;;;;;;;;;;;;;4991767;28;19953;-59
2022/04/22 18:24:30;;;;;;;;;;;;;;;;;;4991439;28;20323;-59
2022/04/22 18:29:42;;;;;;;;;;;;;;;;;;5012002;28;19973;-59
2022/04/22 18:35:17;;;;;;;;;;;;;;;;;;4932390;29;19966;-58
2022/04/22 18:37:49;;;;;;;;;;;;;;;;;;4930727;29;20365;-59
2022/04/22 18:40:18;;;;;;;;;;;;;;;;;;4976739;28;19905;-59
2022/04/22 18:43:03;;;;;;;;;;;;;;;;;;5013579;28;20376;-59
2022/04/22 18:45:29;;;;;;;;;;;;;;;;;;5012242;28;19910;-59
2022/04/22 18:48:17;;;;;;;;;;;;;;;;;;5004610;28;19924;-59
2022/04/22 18:50:50;;;;;;;;;;;;;;;;;;5012656;28;19920;-59
2022/04/22 18:53:18;;;;;;;;;;;;;;;;;;5013640;28;19975;-59
2022/04/22 18:58:54;;;;;;;;;;;;;;;;;;4950674;28;20422;-59
2022/04/22 19:01:29;;;;;;;;;;;;;;;;;;4946413;28;19933;-59
2022/04/22 19:03:55;;;;;;;;;;;;;;;;;;4978449;28;20352;-59
2022/04/22 19:06:24;;;;;;;;;;;;;;;;;;5011948;28;19959;-59
2022/04/22 19:08:53;;;;;;;;;;;;;;;;;;5005853;28;19909;-59
2022/04/22 19:17:23;;;;;;;;;;;;;;;;;;;;;
2022/04/22 19:20:07;;;;;;;;;;;;;;;;;;;;;
2022/04/22 19:22:43;;;;;;;;;;;;;;;;;;4983418;28;19912;-59
2022/04/22 19:25:41;;;;;;;;;;;;;;;;;;;;;
2022/04/22 19:28:07;;;;;;;;;;;;;;;;;;4988701;28;20296;-58
2022/04/22 19:30:44;;;;;;;;;;;;;;;;;;4995471;28;19986;-58
2022/04/22 19:44:33;;;;;;;;;;;;;;;;;;4952092;29;20009;-59
2022/04/22 19:47:03;;;;;;;;;;;;;;;;;;4953006;29;19910;-59
2022/04/22 19:49:37;;;;;;;;;;;;;;;;;;4996571;28;20307;-59
2022/04/22 19:55:09;;;;;;;;;;;;;;;;;;4979236;28;20311;-59
2022/04/22 20:00:40;;;;;;;;;;;;;;;;;;4951742;29;20515;-59
2022/04/22 20:03:09;;;;;;;;;;;;;;;;;;4992816;28;19929;-59
2022/04/22 20:05:37;;;;;;;;;;;;;;;;;;4994789;28;20064;-59
2022/04/22 20:08:04;;;;;;;;;;;;;;;;;;4992623;28;19913;-59
2022/04/22 20:10:42;;;;;;;;;;;;;;;;;;4975970;28;19921;-59
2022/04/22 20:13:17;;;;;;;;;;;;;;;;;;4994590;28;19945;-59
2022/04/22 20:18:31;;;;;;;;;;;;;;;;;;4994089;28;19916;-59
2022/04/22 20:29:20;;;;;;;;;;;;;;;;;;4993979;28;19910;-59
2022/04/22 20:42:52;;;;;;;;;;;;;;;;;;5002520;28;19916;-59
2022/04/22 20:50:49;;;;;;;;;;;;;;;;;;5013056;28;20394;-59
2022/04/22 21:01:43;;;;;;;;;;;;;;;;;;4959084;28;20323;-59
2022/04/22 21:04:15;;;;;;;;;;;;;;;;;;5004876;28;20439;-59
2022/04/22 21:10:00;;;;;;;;;;;;;;;;;;;;;
2022/04/22 21:12:41;;;;;;;;;;;;;;;;;;5001046;28;19982;-59
2022/04/22 21:15:20;;;;;;;;;;;;;;;;;;5004390;28;19988;-59
2022/04/22 21:17:52;;;;;;;;;;;;;;;;;;5001213;28;19910;-59
2022/04/22 21:20:21;;;;;;;;;;;;;;;;;;5003664;28;19913;-59
2022/04/22 21:22:58;;;;;;;;;;;;;;;;;;5003949;28;19937;-59
2022/04/22 21:25:42;;;;;;;;;;;;;;;;;;5002762;28;20275;-59
2022/04/22 21:28:15;;;;;;;;;;;;;;;;;;5001732;28;19972;-59
2022/04/22 21:30:51;;;;;;;;;;;;;;;;;;5004273;28;19906;-59
2022/04/22 21:33:26;;;;;;;;;;;;;;;;;;4992017;28;20244;-59
2022/04/22 21:35:56;;;;;;;;;;;;;;;;;;5004102;28;19906;-59
2022/04/22 21:38:26;;;;;;;;;;;;;;;;;;5003505;28;19973;-59
2022/04/22 21:40:52;;;;;;;;;;;;;;;;;;5003045;28;19906;-59
2022/04/22 21:43:19;;;;;;;;;;;;;;;;;;5004451;28;19906;-59
2022/04/22 21:45:45;;;;;;;;;;;;;;;;;;5004364;28;19964;-59
2022/04/22 21:48:27;;;;;;;;;;;;;;;;;;5003375;28;19966;-59
2022/04/22 21:50:54;;;;;;;;;;;;;;;;;;5002655;28;19913;-59
2022/04/22 21:53:26;;;;;;;;;;;;;;;;;;5003227;28;19920;-59
2022/04/22 21:55:52;;;;;;;;;;;;;;;;;;5003448;28;19910;-59
2022/04/22 22:04:20;;;;;;;;;;;;;;;;;;4924353;29;19990;-59
2022/04/22 22:06:46;;;;;;;;;;;;;;;;;;4908569;29;19953;-59
2022/04/22 22:09:16;;;;;;;;;;;;;;;;;;4923601;29;19941;-59
2022/04/22 22:11:42;;;;;;;;;;;;;;;;;;4924669;29;20448;-59
2022/04/22 22:14:08;;;;;;;;;;;;;;;;;;4972559;28;19913;-59
2022/04/22 22:16:38;;;;;;;;;;;;;;;;;;5004051;28;19912;-59
2022/04/22 22:19:26;;;;;;;;;;;;;;;;;;5000574;28;19906;-59
2022/04/22 22:22:12;;;;;;;;;;;;;;;;;;;;;
2022/04/22 22:24:49;;;;;;;;;;;;;;;;;;5003017;28;19996;-59
2022/04/22 22:30:28;;;;;;;;;;;;;;;;;;4924141;29;19946;-59
2022/04/22 22:32:55;;;;;;;;;;;;;;;;;;4923523;29;19919;-59
2022/04/22 22:35:26;;;;;;;;;;;;;;;;;;4923510;29;19935;-59
2022/04/22 22:37:52;;;;;;;;;;;;;;;;;;4943919;28;19952;-59
2022/04/22 22:40:28;;;;;;;;;;;;;;;;;;5003189;28;19913;-59
2022/04/22 22:43:00;;;;;;;;;;;;;;;;;;5003062;28;19916;-59
2022/04/22 22:45:26;;;;;;;;;;;;;;;;;;5002433;28;19956;-59
2022/04/22 22:47:58;;;;;;;;;;;;;;;;;;5002339;28;19906;-59
2022/04/22 22:53:24;;;;;;;;;;;;;;;;;;5003404;28;20366;-59
2022/04/22 22:55:52;;;;;;;;;;;;;;;;;;5003054;28;19906;-59
2022/04/22 22:58:24;;;;;;;;;;;;;;;;;;5001379;28;19948;-59
2022/04/22 23:01:00;;;;;;;;;;;;;;;;;;5002816;28;19906;-59
2022/04/22 23:03:34;;;;;;;;;;;;;;;;;;5002708;28;19910;-59
2022/04/22 23:06:03;;;;;;;;;;;;;;;;;;5003288;28;19977;-59
2022/04/22 23:08:57;;;;;;;;;;;;;;;;;;5002395;28;19906;-59
2022/04/22 23:14:12;;;;;;;;;;;;;;;;;;5002982;28;19920;-59
2022/04/22 23:16:54;;;;;;;;;;;;;;;;;;5002754;28;19906;-59
2022/04/22 23:19:20;;;;;;;;;;;;;;;;;;5001727;28;19905;-59
2022/04/22 23:21:53;;;;;;;;;;;;;;;;;;5003079;28;19905;-59
2022/04/22 23:24:34;;;;;;;;;;;;;;;;;;5002690;28;19960;-59
2022/04/22 23:27:03;;;;;;;;;;;;;;;;;;5003094;28;20013;-59
2022/04/22 23:32:27;;;;;;;;;;;;;;;;;;4991222;28;19913;-59
2022/04/22 23:35:03;;;;;;;;;;;;;;;;;;5002422;28;19912;-59
2022/04/22 23:37:43;;;;;;;;;;;;;;;;;;5001879;28;19960;-59
2022/04/22 23:40:27;;;;;;;;;;;;;;;;;;5002728;28;19906;-59
2022/04/22 23:42:56;;;;;;;;;;;;;;;;;;5002933;28;19933;-59
2022/04/22 23:53:51;;;;;;;;;;;;;;;;;;4922859;29;19919;-59
2022/04/22 23:56:32;;;;;;;;;;;;;;;;;;4923107;29;19907;-59
2022/04/22 23:59:19;;;;;;;;;;;;;;;;;;4995774;28;19913;-59
